createdAt,value
2022-12-18T00:04:46.814Z,-1.06
2022-12-18T00:09:53.785Z,-1.05
2022-12-18T00:14:58.034Z,-1.01
2022-12-18T00:20:04.479Z,-1.07
2022-12-18T00:25:09.517Z,-1.11
2022-12-18T00:30:38.962Z,-1.16
2022-12-18T00:35:41.175Z,-1.18
2022-12-18T00:40:58.967Z,-1.15
2022-12-18T00:46:08.871Z,-1.13
2022-12-18T00:51:13.918Z,-1.02
2022-12-18T00:56:17.586Z,-0.93
2022-12-18T01:01:22.443Z,-0.89
2022-12-18T01:06:30.550Z,-0.88
2022-12-18T01:11:35.418Z,-0.87
2022-12-18T01:16:48.677Z,-0.96
2022-12-18T01:22:16.967Z,-1.00
2022-12-18T01:27:25.505Z,-1.02
2022-12-18T01:32:33.747Z,-1.10
2022-12-18T01:37:56.317Z,-1.11
2022-12-18T01:43:29.716Z,-1.07
2022-12-18T01:48:38.690Z,-1.09
2022-12-18T01:53:45.385Z,-1.13
2022-12-18T01:59:06.997Z,-1.13
2022-12-18T02:04:49.688Z,-1.15
2022-12-18T02:10:09.144Z,-1.13
2022-12-18T02:15:49.361Z,-1.16
2022-12-18T02:21:18.638Z,-1.16
2022-12-18T02:32:33.004Z,-1.10
2022-12-18T02:43:17.151Z,-1.07
2022-12-18T02:54:01.245Z,-1.05
2022-12-18T02:59:23.498Z,-1.04
2022-12-18T03:04:52.006Z,-1.02
2022-12-18T03:09:59.917Z,-1.04
2022-12-18T03:15:35.293Z,-1.04
2022-12-18T03:21:00.722Z,-1.04
2022-12-18T03:26:12.422Z,-1.03
2022-12-18T03:31:23.289Z,-0.96
2022-12-18T03:42:05.777Z,-0.94
2022-12-18T03:47:49.224Z,-0.89
2022-12-18T03:53:23.996Z,-0.87
2022-12-18T03:58:54.242Z,-0.94
2022-12-18T04:09:33.508Z,-0.95
2022-12-18T04:15:03.465Z,-0.98
2022-12-18T04:20:14.148Z,-1.00
2022-12-18T04:25:27.196Z,-1.05
2022-12-18T04:30:49.488Z,-1.09
2022-12-18T04:37:37.145Z,-1.06
2022-12-18T04:41:52.800Z,-1.08
2022-12-18T04:47:11.173Z,-1.07
2022-12-18T04:52:19.155Z,-1.03
2022-12-18T04:58:02.017Z,-1.03
2022-12-18T05:03:08.091Z,-1.03
2022-12-18T05:08:34.759Z,-1.08
2022-12-18T05:13:45.532Z,-1.09
2022-12-18T05:18:54.248Z,-1.16
2022-12-18T05:24:00.189Z,-1.18
2022-12-18T05:29:07.666Z,-1.11
2022-12-18T05:34:16.425Z,-0.98
2022-12-18T05:39:22.606Z,-0.90
2022-12-18T05:44:28.631Z,-0.99
2022-12-18T05:49:41.898Z,-1.11
2022-12-18T05:54:45.882Z,-1.17
2022-12-18T05:59:53.867Z,-1.21
2022-12-18T06:04:57.878Z,-1.23
2022-12-18T06:10:21.466Z,-1.28
2022-12-18T06:15:25.905Z,-1.27
2022-12-18T06:20:33.806Z,-1.15
2022-12-18T06:25:41.640Z,-0.94
2022-12-18T06:30:49.905Z,-0.88
2022-12-18T06:36:13.254Z,-0.80
2022-12-18T06:41:23.160Z,-0.86
2022-12-18T06:46:29.224Z,-0.81
2022-12-18T06:51:39.315Z,-0.91
2022-12-18T06:56:43.725Z,-0.98
2022-12-18T07:01:48.090Z,-1.06
2022-12-18T07:23:05.053Z,-1.05
2022-12-18T07:28:21.526Z,-1.08
2022-12-18T07:33:26.945Z,-1.09
2022-12-18T07:38:57.917Z,-1.07
2022-12-18T07:44:09.758Z,-1.06
2022-12-18T07:49:23.665Z,-1.06
2022-12-18T07:54:42.387Z,-1.01
2022-12-18T08:00:19.205Z,-0.99
2022-12-18T08:05:40.177Z,-1.00
2022-12-18T08:10:58.895Z,-0.97
2022-12-18T08:16:11.300Z,-0.91
2022-12-18T08:21:26.747Z,-0.89
2022-12-18T08:32:18.387Z,-0.88
2022-12-18T08:37:29.463Z,-0.86
2022-12-18T08:48:32.921Z,-0.87
2022-12-18T08:53:51.107Z,-0.81
2022-12-18T08:58:57.936Z,-0.76
2022-12-18T09:04:05.983Z,-0.70
2022-12-18T09:09:12.496Z,-0.63
2022-12-18T09:14:24.965Z,-0.45
2022-12-18T09:19:29.341Z,-0.10
2022-12-18T09:24:33.543Z,-0.17
2022-12-18T09:29:37.160Z,-0.18
2022-12-18T09:34:41.049Z,-0.18
2022-12-18T09:39:45.178Z,-0.26
2022-12-18T09:44:58.143Z,-0.23
2022-12-18T09:50:18.992Z,-0.01
2022-12-18T09:55:36.620Z,0.08
2022-12-18T10:00:41.785Z,0.04
2022-12-18T10:06:18.579Z,0.01
2022-12-18T10:11:49.859Z,0.04
2022-12-18T10:17:12.397Z,0.10
2022-12-18T10:23:05.636Z,0.16
2022-12-18T10:28:32.526Z,0.25
2022-12-18T10:33:36.610Z,0.46
2022-12-18T10:39:08.044Z,0.59
2022-12-18T10:44:19.788Z,0.69
2022-12-18T10:50:01.622Z,0.65
2022-12-18T10:55:04.991Z,0.70
2022-12-18T11:00:25.372Z,0.77
2022-12-18T11:06:18.729Z,0.79
2022-12-18T11:11:31.195Z,0.77
2022-12-18T11:16:57.925Z,0.82
2022-12-18T11:22:33.284Z,0.66
2022-12-18T11:27:41.598Z,0.50
2022-12-18T11:32:53.159Z,0.45
2022-12-18T11:38:06.080Z,0.41
2022-12-18T11:43:18.261Z,0.42
2022-12-18T11:48:57.543Z,0.48
2022-12-18T11:54:11.486Z,0.62
2022-12-18T11:59:55.141Z,0.71
2022-12-18T12:05:17.856Z,0.75
2022-12-18T12:10:30.368Z,0.73
2022-12-18T12:16:09.398Z,0.75
2022-12-18T12:21:36.796Z,0.71
2022-12-18T12:27:14.002Z,0.56
2022-12-18T12:32:57.122Z,0.46
2022-12-18T12:38:15.275Z,0.42
2022-12-18T12:49:16.542Z,0.53
2022-12-18T12:54:27.117Z,0.69
2022-12-18T12:59:49.456Z,0.65
2022-12-18T13:05:14.427Z,0.59
2022-12-18T13:10:20.900Z,0.46
2022-12-18T13:15:30.379Z,0.36
2022-12-18T13:20:44.704Z,0.27
2022-12-18T13:26:00.393Z,0.15
2022-12-18T13:31:08.528Z,0.20
2022-12-18T13:36:28.915Z,0.15
2022-12-18T13:41:34.361Z,0.04
2022-12-18T13:46:46.676Z,-0.07
2022-12-18T13:51:59.922Z,-0.18
2022-12-18T13:57:05.198Z,-0.33
2022-12-18T14:02:16.588Z,-0.41
2022-12-18T14:07:23.910Z,-0.47
2022-12-18T14:12:53.553Z,-0.58
2022-12-18T14:18:05.326Z,-0.69
2022-12-18T14:23:41.273Z,-0.80
2022-12-18T14:28:46.086Z,-0.88
2022-12-18T14:37:20.719Z,-1.02
2022-12-18T14:40:42.287Z,-1.24
2022-12-18T14:45:47.964Z,-1.41
2022-12-18T14:51:04.783Z,-1.53
2022-12-18T14:56:34.605Z,-1.70
2022-12-18T15:01:45.955Z,-1.84
2022-12-18T15:06:49.992Z,-2.01
2022-12-18T15:12:03.479Z,-2.14
2022-12-18T15:17:26.851Z,-2.28
2022-12-18T15:22:41.820Z,-2.39
2022-12-18T15:27:53.071Z,-2.51
2022-12-18T15:33:25.997Z,-2.60
2022-12-18T15:38:48.608Z,-2.72
2022-12-18T15:44:03.971Z,-2.81
2022-12-18T15:49:24.880Z,-2.92
2022-12-18T15:54:50.624Z,-3.03
2022-12-18T16:00:00.345Z,-3.13
2022-12-18T16:05:04.490Z,-3.22
2022-12-18T16:10:08.502Z,-3.30
2022-12-18T16:15:22.416Z,-3.36
2022-12-18T16:20:28.094Z,-3.37
2022-12-18T16:25:53.014Z,-3.36
2022-12-18T16:31:14.249Z,-3.55
2022-12-18T16:36:27.755Z,-3.67
2022-12-18T16:41:37.457Z,-3.76
2022-12-18T16:46:47.690Z,-3.86
2022-12-18T16:52:52.714Z,-3.97
2022-12-18T16:58:03.264Z,-4.09
2022-12-18T17:03:10.736Z,-4.18
2022-12-18T17:08:22.183Z,-4.15
2022-12-18T17:14:07.245Z,-4.12
2022-12-18T17:19:17.386Z,-4.32
2022-12-18T17:24:40.314Z,-4.45
2022-12-18T17:29:47.735Z,-4.39
2022-12-18T17:34:53.236Z,-4.64
2022-12-18T17:40:00.901Z,-4.95
2022-12-18T17:45:07.536Z,-5.17
2022-12-18T17:50:15.211Z,-5.34
2022-12-18T17:55:19.339Z,-5.50
2022-12-18T18:00:27.580Z,-5.60
2022-12-18T18:05:30.971Z,-5.72
2022-12-18T18:10:38.907Z,-5.77
2022-12-18T18:15:46.183Z,-5.80
2022-12-18T18:20:50.852Z,-5.80
2022-12-18T18:26:09.415Z,-5.76
2022-12-18T18:31:19.111Z,-5.70
2022-12-18T18:36:29.556Z,-5.61
2022-12-18T18:41:38.927Z,-5.52
2022-12-18T18:46:47.571Z,-5.33
2022-12-18T18:51:53.440Z,-4.96
2022-12-18T18:57:26.249Z,-5.05
2022-12-18T19:02:32.794Z,-5.12
2022-12-18T19:07:37.100Z,-5.19
2022-12-18T19:12:59.117Z,-5.30
2022-12-18T19:18:02.469Z,-5.36
2022-12-18T19:23:05.882Z,-5.40
2022-12-18T19:28:21.631Z,-5.49
2022-12-18T19:33:42.365Z,-5.54
2022-12-18T19:38:52.915Z,-5.50
2022-12-18T19:43:57.561Z,-5.50
2022-12-18T19:49:02.969Z,-5.50
2022-12-18T19:54:06.739Z,-5.47
2022-12-18T19:59:13.169Z,-5.40
2022-12-18T20:04:20.223Z,-5.37
2022-12-18T20:09:23.974Z,-5.35
2022-12-18T20:14:28.185Z,-5.33
2022-12-18T20:19:32.498Z,-5.06
2022-12-18T20:24:37.577Z,-4.81
2022-12-18T20:29:40.875Z,-4.96
2022-12-18T20:34:43.998Z,-5.08
2022-12-18T20:39:47.268Z,-5.19
2022-12-18T20:44:50.654Z,-5.27
2022-12-18T20:49:53.794Z,-5.37
2022-12-18T20:54:57.967Z,-5.38
2022-12-18T21:00:11.320Z,-5.35
2022-12-18T21:05:19.233Z,-5.33
2022-12-18T21:10:26.726Z,-5.34
2022-12-18T21:15:31.149Z,-5.36
2022-12-18T21:20:37.538Z,-5.43
2022-12-18T21:25:41.288Z,-5.53
2022-12-18T21:30:46.043Z,-5.61
2022-12-18T21:35:57.014Z,-5.72
2022-12-18T21:41:31.367Z,-5.79
2022-12-18T21:46:40.230Z,-5.87
2022-12-18T21:51:46.271Z,-5.89
2022-12-18T21:56:54.045Z,-5.88
2022-12-18T22:02:13.671Z,-5.90
2022-12-18T22:07:21.167Z,-5.94
2022-12-18T22:12:48.844Z,-5.97
2022-12-18T22:17:59.729Z,-6.03
2022-12-18T22:24:30.092Z,-6.13
2022-12-18T22:29:52.758Z,-6.15
2022-12-18T22:35:09.512Z,-6.16
2022-12-18T22:40:51.511Z,-6.21
2022-12-18T22:46:06.772Z,-6.25
2022-12-18T22:51:23.079Z,-6.25
2022-12-18T22:57:02.474Z,-6.16
2022-12-18T23:03:15.001Z,-6.05
2022-12-18T23:07:52.763Z,-5.89
2022-12-18T23:13:00.391Z,-5.79
2022-12-18T23:18:37.089Z,-5.78
2022-12-18T23:24:12.092Z,-5.86
2022-12-18T23:29:17.355Z,-5.88
2022-12-18T23:34:38.873Z,-5.88
2022-12-18T23:39:48.855Z,-5.87
2022-12-18T23:45:11.205Z,-5.92
2022-12-18T23:51:15.780Z,-6.02
